Time;durP1;ratioP1;P1;durP2;ratioP2;P2;SDS_P1;SDS_P2;PMS_P1;PMS_P2;Temp;Humidity;BMP_temperature;BMP_pressure;BME280_temperature;BME280_humidity;BME280_pressure;Samples;Min_cycle;Max_cycle;Signal;HPM_P1;HPM_P2
2021/05/08 00:02:53;;;;;;;6.87;3.67;;;;;;;9.83;68.63;99086.64;4310158;83;28634;-80
2021/05/08 00:08:55;;;;;;;7.80;3.75;;;;;;;9.83;68.88;99092.00;4213377;84;28704;-84
2021/05/08 00:14:57;;;;;;;6.90;3.67;;;;;;;9.33;73.35;99091.11;4256463;84;28574;-82
2021/05/08 00:21:00;;;;;;;7.47;3.72;;;;;;;9.34;73.23;99097.58;4256787;83;28631;-82
2021/05/08 00:27:02;;;;;;;7.17;3.65;;;;;;;9.00;78.30;99105.62;4254268;84;28642;-82
2021/05/08 00:33:04;;;;;;;8.18;4.45;;;;;;;9.15;77.01;99107.47;4206937;83;28647;-82
2021/05/08 00:39:06;;;;;;;8.03;4.17;;;;;;;8.70;83.18;99115.13;4223974;83;28579;-82
2021/05/08 00:45:10;;;;;;;8.08;4.70;;;;;;;8.62;84.67;99122.92;4223937;84;28682;-81
2021/05/08 00:51:13;;;;;;;10.23;4.80;;;;;;;8.98;81.25;99125.14;4207661;84;28589;-81
2021/05/08 00:57:16;;;;;;;9.78;4.97;;;;;;;8.64;85.78;99130.73;4167721;84;28640;-81
2021/05/08 01:03:17;;;;;;;8.15;4.62;;;;;;;8.68;85.96;99133.30;4167683;85;28612;-82
2021/05/08 01:09:23;;;;;;;10.53;5.33;;;;;;;8.69;86.60;99146.16;4212550;84;28573;-81
2021/05/08 01:15:25;;;;;;;9.78;5.17;;;;;;;8.92;84.96;99146.44;4238130;83;28672;-81
2021/05/08 01:21:27;;;;;;;8.73;4.62;;;;;;;8.81;86.46;99155.19;4239948;84;28613;-81
2021/05/08 01:27:29;;;;;;;9.05;4.80;;;;;;;9.08;82.46;99159.00;4227336;84;28631;-82
2021/05/08 01:33:31;;;;;;;9.65;5.10;;;;;;;9.06;82.55;99162.42;4167682;84;28667;-81
2021/05/08 01:39:33;;;;;;;10.43;4.83;;;;;;;9.03;82.78;99170.91;4169633;85;28656;-82
2021/05/08 01:45:36;;;;;;;8.90;3.80;;;;;;;8.84;83.86;99176.70;4213577;84;28613;-82
2021/05/08 01:51:39;;;;;;;10.28;5.37;;;;;;;9.38;78.29;99179.81;4267006;82;28613;-82
2021/05/08 01:57:48;;;;;;;8.70;3.87;;;;;;;9.30;79.75;99188.13;4318106;82;28590;-82
2021/05/08 02:03:51;;;;;;;7.65;4.22;;;;;;;9.66;76.50;99189.77;4318932;82;28574;-81
2021/05/08 02:09:54;;;;;;;9.70;4.45;;;;;;;9.90;74.09;99190.78;4318338;82;28612;-82
2021/05/08 02:15:56;;;;;;;6.35;3.47;;;;;;;9.69;76.00;99186.13;4286570;82;28604;-82
2021/05/08 02:21:59;;;;;;;7.08;4.05;;;;;;;9.51;77.57;99195.48;4243417;82;28654;-84
2021/05/08 02:28:02;;;;;;;9.05;4.37;;;;;;;9.71;74.85;99200.15;4262590;82;28681;-83
2021/05/08 02:34:05;;;;;;;8.63;3.90;;;;;;;9.93;73.68;99204.30;4294675;82;28621;-83
2021/05/08 02:40:11;;;;;;;7.62;3.77;;;;;;;10.04;72.68;99213.75;4277646;82;28579;-83
2021/05/08 02:46:14;;;;;;;8.73;4.33;;;;;;;10.08;72.34;99220.05;4280834;82;28576;-83
2021/05/08 02:52:17;;;;;;;6.78;3.80;;;;;;;9.89;74.11;99230.77;4259890;82;28637;-83
2021/05/08 02:58:20;;;;;;;6.75;3.90;;;;;;;10.08;72.76;99236.97;4169216;83;28601;-81
2021/05/08 03:04:24;;;;;;;7.50;4.80;;;;;;;9.90;74.78;99248.02;4167157;84;28601;-82
2021/05/08 03:10:27;;;;;;;8.78;4.67;;;;;;;9.88;75.47;99261.36;4218531;84;28573;-81
2021/05/08 03:16:30;;;;;;;7.87;4.30;;;;;;;9.69;76.53;99268.02;4238320;84;28602;-81
2021/05/08 03:22:33;;;;;;;7.97;4.47;;;;;;;9.81;76.30;99261.93;4238072;83;28613;-81
2021/05/08 03:28:36;;;;;;;8.85;4.65;;;;;;;9.99;73.79;99263.31;4237868;84;28592;-80
2021/05/08 03:34:38;;;;;;;8.98;4.95;;;;;;;9.58;77.96;99276.28;4238172;84;28675;-82
2021/05/08 03:40:40;;;;;;;11.12;5.05;;;;;;;9.29;81.42;99291.96;4176918;84;28573;-81
2021/05/08 03:46:42;;;;;;;8.68;4.53;;;;;;;9.15;84.10;99308.66;4167953;85;28649;-81
2021/05/08 03:52:45;;;;;;;9.28;5.08;;;;;;;9.25;83.62;99305.48;4199161;84;28736;-81
2021/05/08 03:58:47;;;;;;;8.65;5.35;;;;;;;9.79;78.09;99309.16;4243942;84;28583;-83
2021/05/08 04:04:49;;;;;;;9.25;4.72;;;;;;;9.59;79.94;99309.30;4243823;84;28607;-82
2021/05/08 04:10:51;;;;;;;9.15;4.67;;;;;;;9.85;76.78;99314.17;4289794;82;28582;-82
2021/05/08 04:16:53;;;;;;;7.70;5.03;;;;;;;10.12;73.33;99325.50;4243720;84;28613;-82
2021/05/08 04:22:57;;;;;;;9.90;4.90;;;;;;;10.16;72.14;99337.98;4296956;82;28682;-82
2021/05/08 04:28:59;;;;;;;8.15;4.75;;;;;;;10.17;70.83;99346.33;4291260;82;29207;-82
2021/05/08 04:35:01;;;;;;;7.85;4.80;;;;;;;10.28;72.01;99348.30;4316364;82;28588;-82
2021/05/08 04:41:03;;;;;;;6.17;3.83;;;;;;;10.63;68.90;99370.30;4249189;82;28583;-82
2021/05/08 04:47:05;;;;;;;9.23;4.78;;;;;;;10.70;68.91;99359.77;4313976;82;28599;-82
2021/05/08 04:53:07;;;;;;;8.85;4.70;;;;;;;10.58;69.58;99369.13;4310198;82;28645;-82
2021/05/08 04:59:09;;;;;;;9.00;4.35;;;;;;;10.63;68.89;99375.69;4303314;83;28580;-80
2021/05/08 05:05:13;;;;;;;7.90;5.03;;;;;;;10.40;70.52;99382.50;4303825;83;28578;-82
2021/05/08 05:11:17;;;;;;;8.03;4.60;;;;;;;10.62;70.71;99391.02;4303927;81;28611;-80
2021/05/08 05:17:19;;;;;;;6.58;3.77;;;;;;;10.86;68.87;99389.81;4177382;84;28632;-80
2021/05/08 05:23:22;;;;;;;8.98;4.35;;;;;;;10.99;67.99;99402.30;4155801;84;28573;-80
2021/05/08 05:29:26;;;;;;;9.98;4.78;;;;;;;11.02;66.95;99401.84;4162559;85;28660;-81
2021/05/08 05:35:28;;;;;;;10.35;4.75;;;;;;;11.00;66.66;99408.78;4167543;85;28666;-81
2021/05/08 05:41:32;;;;;;;7.80;4.62;;;;;;;11.40;64.13;99416.08;4169713;85;28678;-80
2021/05/08 05:47:34;;;;;;;9.00;4.75;;;;;;;11.84;62.81;99414.00;4166357;85;28966;-79
2021/05/08 05:53:36;;;;;;;7.45;4.47;;;;;;;11.37;63.62;99424.61;4202795;84;28576;-79
2021/05/08 05:59:38;;;;;;;8.48;3.87;;;;;;;11.86;62.44;99428.59;4243267;84;28596;-80
2021/05/08 06:05:40;;;;;;;6.95;3.67;;;;;;;12.27;59.31;99420.73;4243610;84;28581;-81
2021/05/08 06:11:42;;;;;;;7.10;3.77;;;;;;;11.44;61.44;99431.55;4311766;82;28614;-81
2021/05/08 06:17:44;;;;;;;6.85;3.75;;;;;;;11.88;60.02;99427.03;4311367;83;28610;-82
2021/05/08 06:23:46;;;;;;;7.10;3.60;;;;;;;11.83;60.07;99426.38;4311183;82;28629;-82
2021/05/08 06:29:49;;;;;;;7.62;2.70;;;;;;;11.78;60.44;99438.34;4383442;81;28609;-82
2021/05/08 06:35:52;;;;;;;7.37;3.47;;;;;;;11.57;60.63;99437.80;4386861;81;28620;-81
2021/05/08 06:41:54;;;;;;;6.28;3.30;;;;;;;11.71;59.76;99431.20;4386673;81;28623;-82
2021/05/08 06:47:59;;;;;;;5.37;3.00;;;;;;;12.67;56.83;99433.52;4363179;81;28587;-81
2021/05/08 06:54:02;;;;;;;4.87;2.60;;;;;;;12.83;53.51;99435.23;4307370;82;28584;-81
2021/05/08 07:00:08;;;;;;;5.47;2.40;;;;;;;12.37;53.85;99445.78;4357599;81;29034;-80
2021/05/08 07:06:10;;;;;;;4.58;2.52;;;;;;;13.39;50.64;99436.94;4427773;80;28620;-80
2021/05/08 07:12:12;;;;;;;3.85;2.52;;;;;;;12.82;52.54;99445.19;4202493;83;28690;-80
2021/05/08 07:18:14;;;;;;;3.95;1.90;;;;;;;12.14;52.76;99440.66;4206803;84;28578;-80
2021/05/08 07:24:17;;;;;;;4.85;2.20;;;;;;;12.29;52.91;99440.73;4206463;84;28605;-80
2021/05/08 07:30:19;;;;;;;2.77;2.02;;;;;;;12.37;53.72;99443.09;4280897;82;28571;-81
2021/05/08 07:36:21;;;;;;;3.98;1.98;;;;;;;12.26;52.38;99437.96;4201909;84;28602;-82
2021/05/08 07:42:23;;;;;;;4.10;2.00;;;;;;;12.54;50.56;99442.66;4177691;84;28632;-83
2021/05/08 07:48:27;;;;;;;4.65;2.25;;;;;;;12.75;49.33;99445.03;4173651;84;28569;-84
2021/05/08 07:54:30;;;;;;;4.20;2.00;;;;;;;13.63;47.79;99434.68;4238529;82;28638;-84
2021/05/08 08:00:33;;;;;;;4.87;1.60;;;;;;;13.79;44.65;99443.38;4257251;82;28600;-84
2021/05/08 08:06:36;;;;;;;3.15;1.67;;;;;;;14.07;43.38;99439.00;4258397;82;28611;-86
2021/05/08 08:12:39;;;;;;;5.12;2.05;;;;;;;14.45;43.55;99449.32;4290387;82;28597;-84
2021/05/08 08:18:43;;;;;;;2.67;1.80;;;;;;;14.01;43.54;99454.84;4302963;82;28627;-84
2021/05/08 08:24:46;;;;;;;3.37;1.50;;;;;;;14.32;44.44;99450.49;4275796;82;28580;-83
2021/05/08 08:30:50;;;;;;;3.20;1.92;;;;;;;14.17;44.48;99455.91;4246504;82;28571;-84
2021/05/08 08:36:54;;;;;;;3.05;1.80;;;;;;;14.83;45.39;99446.41;4333962;81;28596;-85
2021/05/08 08:42:56;;;;;;;4.10;1.60;;;;;;;15.29;43.52;99435.35;4322843;81;28580;-84
2021/05/08 08:49:02;;;;;;;4.12;1.65;;;;;;;14.59;41.12;99461.98;4326313;81;28630;-84
2021/05/08 08:55:07;;;;;;;3.43;1.57;;;;;;;14.63;40.85;99456.35;4339864;81;28606;-84
2021/05/08 09:01:10;;;;;;;3.00;1.47;;;;;;;14.61;40.69;99465.25;4355603;80;50734;-84
2021/05/08 09:07:15;;;;;;;3.25;1.80;;;;;;;15.40;39.81;99464.72;4334641;81;28611;-84
2021/05/08 09:13:22;;;;;;;3.20;1.90;;;;;;;15.49;38.85;99450.21;4337239;81;28597;-84
2021/05/08 09:19:24;;;;;;;3.25;1.80;;;;;;;15.70;38.79;99449.88;4344471;80;28643;-84
2021/05/08 09:25:29;;;;;;;2.58;1.50;;;;;;;15.03;38.83;99471.57;4317127;80;28565;-83
2021/05/08 09:31:57;;;;;;;3.20;1.75;;;;;;;15.64;39.09;99477.19;4332300;81;28579;-81
2021/05/08 09:38:11;;;;;;;;;;;;;;;14.61;43.04;99486.38;4344072;81;28646;-81
2021/05/08 09:44:15;;;;;;;3.52;2.12;;;;;;;14.55;44.70;99489.27;4325284;81;20179;-80
2021/05/08 09:50:24;;;;;;;2.70;1.52;;;;;;;15.72;42.61;99465.91;4323409;81;28570;-83
2021/05/08 09:56:41;;;;;;;4.40;1.72;;;;;;;15.55;38.76;99459.22;4178195;84;28647;-81
2021/05/08 10:02:43;;;;;;;3.65;1.67;;;;;;;15.42;39.39;99470.73;4212329;83;28636;-81
2021/05/08 10:08:45;;;;;;;4.08;2.20;;;;;;;15.01;39.38;99460.17;4205111;83;28588;-82
2021/05/08 10:14:50;;;;;;;3.27;1.92;;;;;;;14.89;39.28;99458.13;4212558;82;28576;-82
2021/05/08 10:20:56;;;;;;;2.45;1.60;;;;;;;16.38;37.67;99435.05;4221414;83;28684;-83
2021/05/08 10:26:59;;;;;;;5.30;1.80;;;;;;;16.36;37.64;99442.64;4210674;83;28626;-82
2021/05/08 10:33:07;;;;;;;3.37;1.70;;;;;;;16.21;37.46;99452.03;4211399;84;28624;-82
2021/05/08 10:39:10;;;;;;;3.80;1.70;;;;;;;15.85;36.52;99466.84;4214589;84;28652;-81
2021/05/08 10:45:23;;;;;;;4.15;1.80;;;;;;;15.72;37.37;99472.68;4215047;82;28626;-82
2021/05/08 10:51:57;;;;;;;2.87;1.50;;;;;;;16.01;37.33;99465.13;4205931;83;28598;-84
2021/05/08 10:58:21;;;;;;;3.90;1.98;;;;;;;16.53;36.68;99445.20;4206394;84;28700;-83
2021/05/08 11:04:23;;;;;;;4.72;1.90;;;;;;;16.30;37.08;99443.70;4179688;83;28644;-82
2021/05/08 11:10:37;;;;;;;3.30;1.98;;;;;;;15.01;38.12;99460.17;4199437;84;28601;-82
2021/05/08 11:16:57;;;;;;;4.50;2.15;;;;;;;15.27;38.10;99456.46;4181907;84;28642;-84
2021/05/08 11:23:05;;;;;;;3.90;1.65;;;;;;;16.10;37.18;99442.97;4203523;84;28670;-81
2021/05/08 11:29:19;;;;;;;5.95;2.55;;;;;;;15.41;37.50;99449.30;4189485;84;28637;-81
2021/05/08 11:35:31;;;;;;;5.17;2.00;;;;;;;16.19;36.89;99454.16;4197434;84;28648;-83
2021/05/08 11:41:34;;;;;;;2.75;1.60;;;;;;;16.53;36.67;99437.06;4204029;84;28701;-81
2021/05/08 11:47:36;;;;;;;4.55;2.52;;;;;;;16.00;34.37;99451.84;4169696;84;28656;-80
2021/05/08 11:53:39;;;;;;;2.62;1.47;;;;;;;16.03;35.04;99438.56;4201056;82;28593;-82
2021/05/08 11:59:41;;;;;;;3.27;1.87;;;;;;;16.73;34.27;99430.13;4251909;82;28622;-82
2021/05/08 12:05:49;;;;;;;2.98;2.10;;;;;;;17.04;33.20;99428.17;4268260;82;28944;-82
2021/05/08 12:11:57;;;;;;;3.72;1.80;;;;;;;17.63;32.25;99438.41;4272571;82;28567;-79
2021/05/08 12:18:02;;;;;;;3.17;2.02;;;;;;;18.05;31.60;99419.73;4273694;82;28588;-82
2021/05/08 12:24:14;;;;;;;2.92;1.40;;;;;;;17.94;31.03;99420.26;4380689;79;75229;-86
2021/05/08 12:30:32;;;;;;;2.50;1.37;;;;;;;17.22;30.40;99418.17;4485248;79;72108;-83
2021/05/08 12:37:02;;;;;;;3.12;1.40;;;;;;;17.12;30.73;99405.38;4583065;76;75003;-82
2021/05/08 12:43:26;;;;;;;3.72;1.50;;;;;;;16.24;31.92;99418.95;4371261;79;70998;-82
2021/05/08 12:50:03;;;;;;;2.05;1.30;;;;;;;17.24;31.10;99407.05;4391048;79;84825;-81
2021/05/08 12:56:15;;;;;;;3.37;1.55;;;;;;;17.07;31.07;99401.83;4386441;79;84840;-82
2021/05/08 13:02:30;;;;;;;4.40;1.60;;;;;;;16.73;31.33;99414.67;4589341;76;85663;-82
2021/05/08 13:08:52;;;;;;;3.00;1.55;;;;;;;17.17;30.63;99417.34;4378291;79;85179;-84
2021/05/08 13:15:18;;;;;;;3.30;1.80;;;;;;;18.01;29.95;99410.47;4380409;79;84807;-82
2021/05/08 13:21:31;;;;;;;3.75;1.50;;;;;;;18.24;30.41;99401.50;4473844;77;84931;-82
2021/05/08 13:27:43;;;;;;;3.35;1.72;;;;;;;17.27;28.79;99416.84;4397489;79;84801;-82
2021/05/08 13:33:56;;;;;;;2.52;1.50;;;;;;;17.19;28.88;99405.13;4464122;79;84798;-84
2021/05/08 13:40:11;;;;;;;3.75;1.70;;;;;;;17.91;28.61;99402.30;4599675;76;85078;-84
2021/05/08 13:46:22;;;;;;;2.80;1.55;;;;;;;17.75;28.31;99402.27;4376365;79;84835;-83
2021/05/08 13:52:34;;;;;;;3.73;1.80;;;;;;;17.97;26.29;99374.02;4377987;78;270646;-83
2021/05/08 13:58:46;;;;;;;3.67;1.57;;;;;;;18.03;26.53;99398.79;4554948;77;63297;-84
2021/05/08 14:04:58;;;;;;;2.35;1.32;;;;;;;18.23;26.82;99386.27;4391059;79;84789;-83
2021/05/08 14:11:10;;;;;;;2.73;1.60;;;;;;;18.00;25.68;99388.96;4448279;77;269326;-81
2021/05/08 14:17:22;;;;;;;2.85;1.50;;;;;;;18.29;24.84;99383.83;4375058;79;85144;-84
2021/05/08 14:23:35;;;;;;;2.10;1.30;;;;;;;17.73;26.58;99382.69;4474901;77;78390;-84
2021/05/08 14:29:47;;;;;;;2.67;1.20;;;;;;;18.14;25.33;99373.77;4458370;79;72635;-83
2021/05/08 14:35:59;;;;;;;2.98;1.30;;;;;;;17.95;25.27;99374.81;4385674;79;85145;-84
2021/05/08 14:42:14;;;;;;;2.50;1.22;;;;;;;18.45;25.17;99378.34;4493493;76;84782;-84
2021/05/08 14:48:26;;;;;;;2.85;1.80;;;;;;;18.23;25.56;99378.94;4362502;78;270715;-84
2021/05/08 14:54:38;;;;;;;1.95;1.15;;;;;;;18.51;25.87;99375.89;4470211;77;73397;-83
